sensor_id;sensor_type;location;lat;lon;timestamp;pressure;altitude;pressure_sealevel;temperature;humidity
26839;BME280;40088;51.214;6.786;2024-01-30T00:08:30;102462.78;;;13.99;54.16
26839;BME280;40088;51.214;6.786;2024-01-30T00:18:31;102463.66;;;14.00;54.15
26839;BME280;40088;51.214;6.786;2024-01-30T00:28:31;102464.50;;;14.00;53.89
26839;BME280;40088;51.214;6.786;2024-01-30T00:38:32;102457.31;;;13.99;54.08
26839;BME280;40088;51.214;6.786;2024-01-30T00:48:32;102453.56;;;14.00;53.97
26839;BME280;40088;51.214;6.786;2024-01-30T00:58:33;102447.22;;;14.00;54.06
26839;BME280;40088;51.214;6.786;2024-01-30T01:08:33;102449.94;;;14.00;54.10
26839;BME280;40088;51.214;6.786;2024-01-30T01:18:36;102460.03;;;13.99;53.99
26839;BME280;40088;51.214;6.786;2024-01-30T01:28:40;102461.91;;;13.99;53.99
26839;BME280;40088;51.214;6.786;2024-01-30T01:38:41;102450.97;;;13.99;54.15
26839;BME280;40088;51.214;6.786;2024-01-30T01:48:42;102446.34;;;13.99;54.06
26839;BME280;40088;51.214;6.786;2024-01-30T01:58:44;102446.34;;;13.99;53.97
26839;BME280;40088;51.214;6.786;2024-01-30T02:08:47;102435.38;;;13.99;53.97
26839;BME280;40088;51.214;6.786;2024-01-30T02:18:47;102429.91;;;13.99;53.84
26839;BME280;40088;51.214;6.786;2024-01-30T02:28:48;102422.69;;;13.98;53.96
26839;BME280;40088;51.214;6.786;2024-01-30T02:38:49;102406.25;;;13.98;54.02
26839;BME280;40088;51.214;6.786;2024-01-30T02:48:50;102406.97;;;14.00;53.97
26839;BME280;40088;51.214;6.786;2024-01-30T02:58:51;102395.28;;;13.98;53.88
26839;BME280;40088;51.214;6.786;2024-01-30T03:08:51;102392.53;;;13.98;54.09
26839;BME280;40088;51.214;6.786;2024-01-30T03:18:52;102383.44;;;13.98;53.94
26839;BME280;40088;51.214;6.786;2024-01-30T03:28:52;102380.56;;;13.99;54.06
26839;BME280;40088;51.214;6.786;2024-01-30T03:38:53;102377.97;;;13.98;54.20
26839;BME280;40088;51.214;6.786;2024-01-30T03:48:55;102376.09;;;13.98;53.93
26839;BME280;40088;51.214;6.786;2024-01-30T03:58:56;102373.34;;;13.98;54.06
26839;BME280;40088;51.214;6.786;2024-01-30T04:08:57;102373.19;;;14.00;53.98
26839;BME280;40088;51.214;6.786;2024-01-30T04:18:57;102368.75;;;13.99;54.02
26839;BME280;40088;51.214;6.786;2024-01-30T04:28:58;102350.56;;;13.98;54.38
26839;BME280;40088;51.214;6.786;2024-01-30T04:38:58;102356.91;;;13.98;54.07
26839;BME280;40088;51.214;6.786;2024-01-30T04:48:59;102346.81;;;13.99;54.24
26839;BME280;40088;51.214;6.786;2024-01-30T04:59:00;102351.44;;;13.98;54.20
26839;BME280;40088;51.214;6.786;2024-01-30T05:09:00;102346.81;;;13.99;54.13
26839;BME280;40088;51.214;6.786;2024-01-30T05:19:04;102344.94;;;13.99;54.09
26839;BME280;40088;51.214;6.786;2024-01-30T05:29:05;102337.72;;;13.98;54.09
26839;BME280;40088;51.214;6.786;2024-01-30T05:39:05;102339.44;;;13.99;54.14
26839;BME280;40088;51.214;6.786;2024-01-30T05:49:07;102353.16;;;13.99;54.24
26839;BME280;40088;51.214;6.786;2024-01-30T05:59:07;102334.97;;;13.98;54.26
26839;BME280;40088;51.214;6.786;2024-01-30T06:09:08;102348.53;;;14.00;54.27
26839;BME280;40088;51.214;6.786;2024-01-30T06:19:09;102339.44;;;13.99;54.18
26839;BME280;40088;51.214;6.786;2024-01-30T06:29:10;102327.63;;;13.99;54.25
26839;BME280;40088;51.214;6.786;2024-01-30T06:39:10;102324.88;;;13.99;54.27
26839;BME280;40088;51.214;6.786;2024-01-30T06:49:11;102315.81;;;13.98;54.26
26839;BME280;40088;51.214;6.786;2024-01-30T06:59:11;102343.91;;;14.00;54.37
26839;BME280;40088;51.214;6.786;2024-01-30T07:09:12;102351.28;;;14.00;54.27
26839;BME280;40088;51.214;6.786;2024-01-30T07:19:12;102345.78;;;14.00;54.23
26839;BME280;40088;51.214;6.786;2024-01-30T07:29:12;102357.63;;;14.00;54.18
26839;BME280;40088;51.214;6.786;2024-01-30T07:39:13;102359.50;;;14.00;54.39
26839;BME280;40088;51.214;6.786;2024-01-30T07:49:13;102370.47;;;14.00;54.24
26839;BME280;40088;51.214;6.786;2024-01-30T07:59:14;102378.69;;;14.00;54.30
26839;BME280;40088;51.214;6.786;2024-01-30T08:09:14;102387.78;;;14.00;54.38
26839;BME280;40088;51.214;6.786;2024-01-30T08:19:15;102391.53;;;13.99;54.46
26839;BME280;40088;51.214;6.786;2024-01-30T08:29:15;102400.63;;;14.00;54.27
26839;BME280;40088;51.214;6.786;2024-01-30T08:39:16;102398.72;;;14.00;54.29
26839;BME280;40088;51.214;6.786;2024-01-30T08:49:16;102409.69;;;14.00;54.46
26839;BME280;40088;51.214;6.786;2024-01-30T08:59:17;102412.44;;;14.00;54.31
26839;BME280;40088;51.214;6.786;2024-01-30T09:09:19;102429.78;;;14.01;54.38
26839;BME280;40088;51.214;6.786;2024-01-30T09:19:19;102431.63;;;14.00;54.46
26839;BME280;40088;51.214;6.786;2024-01-30T09:29:20;102432.53;;;14.01;54.46
26839;BME280;40088;51.214;6.786;2024-01-30T09:39:21;102453.56;;;14.00;54.58
26839;BME280;40088;51.214;6.786;2024-01-30T09:49:23;102441.63;;;14.01;54.56
26839;BME280;40088;51.214;6.786;2024-01-30T09:59:24;102441.63;;;14.01;54.55
26839;BME280;40088;51.214;6.786;2024-01-30T10:09:26;102455.31;;;14.01;54.47
26839;BME280;40088;51.214;6.786;2024-01-30T10:19:26;102456.19;;;14.02;54.73
26839;BME280;40088;51.214;6.786;2024-01-30T10:29:28;102454.44;;;14.01;54.79
26839;BME280;40088;51.214;6.786;2024-01-30T10:39:29;102448.81;;;14.02;54.53
26839;BME280;40088;51.214;6.786;2024-01-30T10:49:31;102450.69;;;14.02;54.62
26839;BME280;40088;51.214;6.786;2024-01-30T10:59:33;102446.09;;;14.02;54.72
26839;BME280;40088;51.214;6.786;2024-01-30T11:09:36;102453.28;;;14.03;54.81
26839;BME280;40088;51.214;6.786;2024-01-30T11:19:36;102450.69;;;14.02;54.90
26839;BME280;40088;51.214;6.786;2024-01-30T11:29:37;102458.78;;;14.03;54.78
26839;BME280;40088;51.214;6.786;2024-01-30T11:39:38;102456.03;;;14.03;54.94
26839;BME280;40088;51.214;6.786;2024-01-30T11:49:39;102453.28;;;14.03;54.93
26839;BME280;40088;51.214;6.786;2024-01-30T11:59:39;102459.63;;;14.04;55.11
26839;BME280;40088;51.214;6.786;2024-01-30T12:09:39;102447.81;;;14.03;55.22
26839;BME280;40088;51.214;6.786;2024-01-30T12:19:40;102460.50;;;14.04;55.18
26839;BME280;40088;51.214;6.786;2024-01-30T12:29:42;102454.00;;;14.05;55.13
26839;BME280;40088;51.214;6.786;2024-01-30T12:39:42;102434.81;;;14.05;55.23
26839;BME280;40088;51.214;6.786;2024-01-30T12:49:43;102446.69;;;14.06;55.14
26839;BME280;40088;51.214;6.786;2024-01-30T12:59:45;102443.94;;;14.06;55.60
26839;BME280;40088;51.214;6.786;2024-01-30T13:09:46;102447.56;;;14.06;55.44
26839;BME280;40088;51.214;6.786;2024-01-30T13:19:46;102468.47;;;14.07;55.65
26839;BME280;40088;51.214;6.786;2024-01-30T13:29:48;102481.16;;;14.08;55.65
26839;BME280;40088;51.214;6.786;2024-01-30T13:39:49;102475.84;;;14.07;55.75
26839;BME280;40088;51.214;6.786;2024-01-30T13:49:49;102472.06;;;14.08;55.96
26839;BME280;40088;51.214;6.786;2024-01-30T13:59:49;102483.91;;;14.08;55.78
26839;BME280;40088;51.214;6.786;2024-01-30T14:09:50;102481.16;;;14.08;56.14
26839;BME280;40088;51.214;6.786;2024-01-30T14:19:50;102466.44;;;14.10;55.97
26839;BME280;40088;51.214;6.786;2024-01-30T14:29:51;102483.91;;;14.08;56.26
26839;BME280;40088;51.214;6.786;2024-01-30T14:39:52;102481.88;;;14.11;56.22
26839;BME280;40088;51.214;6.786;2024-01-30T14:49:52;102498.34;;;14.11;56.51
26839;BME280;40088;51.214;6.786;2024-01-30T14:59:53;102514.78;;;14.11;56.34
26839;BME280;40088;51.214;6.786;2024-01-30T15:09:53;102525.91;;;14.09;56.50
26839;BME280;40088;51.214;6.786;2024-01-30T15:19:54;102538.72;;;14.08;56.59
26839;BME280;40088;51.214;6.786;2024-01-30T15:29:54;102556.91;;;14.10;56.61
26839;BME280;40088;51.214;6.786;2024-01-30T15:39:54;102576.09;;;14.10;56.89
26839;BME280;40088;51.214;6.786;2024-01-30T15:49:55;102595.28;;;14.10;56.64
26839;BME280;40088;51.214;6.786;2024-01-30T15:59:55;102608.13;;;14.09;56.71
26839;BME280;40088;51.214;6.786;2024-01-30T16:09:56;102622.69;;;14.10;56.46
26839;BME280;40088;51.214;6.786;2024-01-30T16:19:56;102633.66;;;14.10;56.40
26839;BME280;40088;51.214;6.786;2024-01-30T16:30:06;102649.25;;;14.09;56.36
26839;BME280;40088;51.214;6.786;2024-01-30T16:40:07;102669.44;;;14.08;56.29
26839;BME280;40088;51.214;6.786;2024-01-30T16:50:09;102685.91;;;14.08;56.03
26839;BME280;40088;51.214;6.786;2024-01-30T17:00:10;102695.84;;;14.09;55.89
26839;BME280;40088;51.214;6.786;2024-01-30T17:10:11;102713.31;;;14.08;55.65
26839;BME280;40088;51.214;6.786;2024-01-30T17:20:13;102727.88;;;14.08;55.47
26839;BME280;40088;51.214;6.786;2024-01-30T17:30:20;102735.25;;;14.08;55.38
26839;BME280;40088;51.214;6.786;2024-01-30T17:40:20;102770.88;;;14.08;55.28
26839;BME280;40088;51.214;6.786;2024-01-30T17:50:20;102791.94;;;14.07;55.22
26839;BME280;40088;51.214;6.786;2024-01-30T18:00:22;102808.38;;;14.07;55.04
26839;BME280;40088;51.214;6.786;2024-01-30T18:10:23;102811.13;;;14.07;54.95
26839;BME280;40088;51.214;6.786;2024-01-30T18:20:23;102822.09;;;14.07;54.83
26839;BME280;40088;51.214;6.786;2024-01-30T18:30:23;102822.09;;;14.07;54.83
26839;BME280;40088;51.214;6.786;2024-01-30T18:40:24;102844.03;;;14.07;54.88
26839;BME280;40088;51.214;6.786;2024-01-30T18:50:24;102850.50;;;14.06;54.89
26839;BME280;40088;51.214;6.786;2024-01-30T19:00:24;102866.81;;;14.08;54.92
26839;BME280;40088;51.214;6.786;2024-01-30T19:10:26;102872.44;;;14.06;54.67
26839;BME280;40088;51.214;6.786;2024-01-30T19:20:28;102868.69;;;14.07;54.68
26839;BME280;40088;51.214;6.786;2024-01-30T19:30:29;102875.19;;;14.06;54.75
26839;BME280;40088;51.214;6.786;2024-01-30T19:40:30;102882.53;;;14.06;54.74
26839;BME280;40088;51.214;6.786;2024-01-30T19:50:31;102893.50;;;14.06;54.61
26839;BME280;40088;51.214;6.786;2024-01-30T20:00:31;102906.31;;;14.05;54.60
26839;BME280;40088;51.214;6.786;2024-01-30T20:10:31;102919.03;;;14.06;54.59
26839;BME280;40088;51.214;6.786;2024-01-30T20:20:32;102931.75;;;14.07;54.71
26839;BME280;40088;51.214;6.786;2024-01-30T20:30:34;102949.06;;;14.08;54.76
26839;BME280;40088;51.214;6.786;2024-01-30T20:40:34;102940.09;;;14.06;54.62
26839;BME280;40088;51.214;6.786;2024-01-30T20:50:34;102943.72;;;14.06;54.66
26839;BME280;40088;51.214;6.786;2024-01-30T21:00:35;102968.41;;;14.06;54.56
26839;BME280;40088;51.214;6.786;2024-01-30T21:10:35;102957.44;;;14.06;54.68
26839;BME280;40088;51.214;6.786;2024-01-30T21:20:36;102960.16;;;14.06;54.73
26839;BME280;40088;51.214;6.786;2024-01-30T21:30:37;102968.41;;;14.06;54.68
26839;BME280;40088;51.214;6.786;2024-01-30T21:40:38;102965.66;;;14.06;54.77
26839;BME280;40088;51.214;6.786;2024-01-30T21:50:40;102973.88;;;14.06;54.69
26839;BME280;40088;51.214;6.786;2024-01-30T22:00:40;102973.88;;;14.06;54.74
26839;BME280;40088;51.214;6.786;2024-01-30T22:10:41;102984.84;;;14.06;54.84
26839;BME280;40088;51.214;6.786;2024-01-30T22:20:43;102992.19;;;14.06;54.79
26839;BME280;40088;51.214;6.786;2024-01-30T22:30:43;102991.28;;;14.05;54.90
26839;BME280;40088;51.214;6.786;2024-01-30T22:40:44;103012.25;;;14.06;55.01
26839;BME280;40088;51.214;6.786;2024-01-30T22:50:45;103018.59;;;14.07;54.86
26839;BME280;40088;51.214;6.786;2024-01-30T23:00:45;103029.66;;;14.05;54.93
26839;BME280;40088;51.214;6.786;2024-01-30T23:10:46;103037.91;;;14.05;54.76
26839;BME280;40088;51.214;6.786;2024-01-30T23:20:47;103048.88;;;14.05;54.99
26839;BME280;40088;51.214;6.786;2024-01-30T23:30:48;103049.78;;;14.06;54.89
26839;BME280;40088;51.214;6.786;2024-01-30T23:40:49;103056.22;;;14.05;54.87
26839;BME280;40088;51.214;6.786;2024-01-30T23:50:49;103056.13;;;14.06;54.92
